sensor_id;sensor_type;location;lat;lon;timestamp;temperature;humidity
66722;SHT31;53633;49.932;10.884;2022-12-18T00:02:13;-11.16;89.12
66722;SHT31;53633;49.932;10.884;2022-12-18T00:04:40;-10.90;88.33
66722;SHT31;53633;49.932;10.884;2022-12-18T00:07:07;-10.95;87.79
66722;SHT31;53633;49.932;10.884;2022-12-18T00:09:35;-10.95;87.19
66722;SHT31;53633;49.932;10.884;2022-12-18T00:12:06;-10.95;86.67
66722;SHT31;53633;49.932;10.884;2022-12-18T00:14:44;-10.80;87.01
66722;SHT31;53633;49.932;10.884;2022-12-18T00:17:12;-10.72;86.67
66722;SHT31;53633;49.932;10.884;2022-12-18T00:19:38;-10.82;85.84
66722;SHT31;53633;49.932;10.884;2022-12-18T00:22:05;-11.04;84.62
66722;SHT31;53633;49.932;10.884;2022-12-18T00:24:32;-11.21;84.73
66722;SHT31;53633;49.932;10.884;2022-12-18T00:27:00;-11.27;85.86
66722;SHT31;53633;49.932;10.884;2022-12-18T00:29:26;-11.31;86.42
66722;SHT31;53633;49.932;10.884;2022-12-18T00:31:53;-11.40;85.91
66722;SHT31;53633;49.932;10.884;2022-12-18T00:34:19;-11.41;86.22
66722;SHT31;53633;49.932;10.884;2022-12-18T00:36:47;-11.44;86.60
66722;SHT31;53633;49.932;10.884;2022-12-18T00:39:14;-11.42;86.33
66722;SHT31;53633;49.932;10.884;2022-12-18T00:41:41;-11.35;86.15
66722;SHT31;53633;49.932;10.884;2022-12-18T00:44:10;-11.40;85.99
66722;SHT31;53633;49.932;10.884;2022-12-18T00:46:38;-11.47;85.59
66722;SHT31;53633;49.932;10.884;2022-12-18T00:49:04;-11.48;85.89
66722;SHT31;53633;49.932;10.884;2022-12-18T00:51:31;-11.48;86.93
66722;SHT31;53633;49.932;10.884;2022-12-18T00:53:58;-11.31;87.38
66722;SHT31;53633;49.932;10.884;2022-12-18T00:56:25;-11.27;86.61
66722;SHT31;53633;49.932;10.884;2022-12-18T00:58:52;-11.16;86.41
66722;SHT31;53633;49.932;10.884;2022-12-18T01:01:20;-11.11;86.35
66722;SHT31;53633;49.932;10.884;2022-12-18T01:03:47;-11.21;86.09
66722;SHT31;53633;49.932;10.884;2022-12-18T01:06:15;-11.30;85.51
66722;SHT31;53633;49.932;10.884;2022-12-18T01:08:42;-11.27;86.40
66722;SHT31;53633;49.932;10.884;2022-12-18T01:11:10;-11.30;86.90
66722;SHT31;53633;49.932;10.884;2022-12-18T01:13:37;-11.34;86.71
66722;SHT31;53633;49.932;10.884;2022-12-18T01:16:05;-11.20;87.02
66722;SHT31;53633;49.932;10.884;2022-12-18T01:18:34;-11.13;87.43
66722;SHT31;53633;49.932;10.884;2022-12-18T01:21:00;-11.04;87.40
66722;SHT31;53633;49.932;10.884;2022-12-18T01:23:27;-10.99;86.84
66722;SHT31;53633;49.932;10.884;2022-12-18T01:25:53;-10.83;86.98
66722;SHT31;53633;49.932;10.884;2022-12-18T01:28:20;-10.82;86.17
66722;SHT31;53633;49.932;10.884;2022-12-18T01:30:47;-10.75;85.64
66722;SHT31;53633;49.932;10.884;2022-12-18T01:33:13;-10.87;85.35
66722;SHT31;53633;49.932;10.884;2022-12-18T01:35:42;-10.96;85.72
66722;SHT31;53633;49.932;10.884;2022-12-18T01:38:09;-10.89;86.19
66722;SHT31;53633;49.932;10.884;2022-12-18T01:40:36;-10.79;85.68
66722;SHT31;53633;49.932;10.884;2022-12-18T01:43:03;-10.62;84.72
66722;SHT31;53633;49.932;10.884;2022-12-18T01:45:31;-10.54;84.41
66722;SHT31;53633;49.932;10.884;2022-12-18T01:48:00;-10.54;84.23
66722;SHT31;53633;49.932;10.884;2022-12-18T01:50:30;-10.47;83.99
66722;SHT31;53633;49.932;10.884;2022-12-18T01:53:02;-10.42;83.87
66722;SHT31;53633;49.932;10.884;2022-12-18T01:55:34;-10.48;83.97
66722;SHT31;53633;49.932;10.884;2022-12-18T01:58:01;-10.58;83.90
66722;SHT31;53633;49.932;10.884;2022-12-18T02:00:29;-10.66;84.27
66722;SHT31;53633;49.932;10.884;2022-12-18T02:02:56;-10.75;85.09
66722;SHT31;53633;49.932;10.884;2022-12-18T02:05:30;-10.76;85.24
66722;SHT31;53633;49.932;10.884;2022-12-18T02:08:05;-10.79;85.51
66722;SHT31;53633;49.932;10.884;2022-12-18T02:10:39;-10.86;85.57
66722;SHT31;53633;49.932;10.884;2022-12-18T02:13:13;-10.92;86.24
66722;SHT31;53633;49.932;10.884;2022-12-18T02:15:45;-10.96;86.40
66722;SHT31;53633;49.932;10.884;2022-12-18T02:18:18;-10.99;86.24
66722;SHT31;53633;49.932;10.884;2022-12-18T02:20:48;-11.07;86.37
66722;SHT31;53633;49.932;10.884;2022-12-18T02:23:27;-10.93;86.94
66722;SHT31;53633;49.932;10.884;2022-12-18T02:26:11;-10.83;86.88
66722;SHT31;53633;49.932;10.884;2022-12-18T02:28:42;-10.64;86.63
66722;SHT31;53633;49.932;10.884;2022-12-18T02:31:13;-10.48;86.69
66722;SHT31;53633;49.932;10.884;2022-12-18T02:33:42;-10.38;86.64
66722;SHT31;53633;49.932;10.884;2022-12-18T02:36:11;-10.35;86.77
66722;SHT31;53633;49.932;10.884;2022-12-18T02:38:39;-10.30;86.92
66722;SHT31;53633;49.932;10.884;2022-12-18T02:41:08;-10.05;86.22
66722;SHT31;53633;49.932;10.884;2022-12-18T02:43:34;-10.03;85.85
66722;SHT31;53633;49.932;10.884;2022-12-18T02:46:27;-10.14;85.91
66722;SHT31;53633;49.932;10.884;2022-12-18T02:49:01;-10.27;86.34
66722;SHT31;53633;49.932;10.884;2022-12-18T02:51:32;-10.20;86.56
66722;SHT31;53633;49.932;10.884;2022-12-18T02:54:09;-10.16;86.82
66722;SHT31;53633;49.932;10.884;2022-12-18T02:56:42;-10.28;86.99
66722;SHT31;53633;49.932;10.884;2022-12-18T02:59:13;-10.20;87.13
66722;SHT31;53633;49.932;10.884;2022-12-18T03:01:48;-10.27;87.22
66722;SHT31;53633;49.932;10.884;2022-12-18T03:04:20;-10.26;87.21
66722;SHT31;53633;49.932;10.884;2022-12-18T03:06:51;-10.24;87.13
66722;SHT31;53633;49.932;10.884;2022-12-18T03:09:24;-10.16;86.67
66722;SHT31;53633;49.932;10.884;2022-12-18T03:11:59;-10.12;86.52
66722;SHT31;53633;49.932;10.884;2022-12-18T03:14:28;-10.09;86.32
66722;SHT31;53633;49.932;10.884;2022-12-18T03:17:01;-9.97;85.45
66722;SHT31;53633;49.932;10.884;2022-12-18T03:19:29;-9.99;84.72
66722;SHT31;53633;49.932;10.884;2022-12-18T03:21:58;-9.96;84.38
66722;SHT31;53633;49.932;10.884;2022-12-18T03:24:27;-10.09;84.08
66722;SHT31;53633;49.932;10.884;2022-12-18T03:27:01;-10.23;84.66
66722;SHT31;53633;49.932;10.884;2022-12-18T03:29:35;-10.48;84.41
66722;SHT31;53633;49.932;10.884;2022-12-18T03:32:05;-10.86;84.05
66722;SHT31;53633;49.932;10.884;2022-12-18T03:34:35;-11.16;84.94
66722;SHT31;53633;49.932;10.884;2022-12-18T03:37:03;-11.34;85.47
66722;SHT31;53633;49.932;10.884;2022-12-18T03:39:31;-11.35;86.20
66722;SHT31;53633;49.932;10.884;2022-12-18T03:42:05;-11.30;85.51
66722;SHT31;53633;49.932;10.884;2022-12-18T03:44:37;-11.20;85.26
66722;SHT31;53633;49.932;10.884;2022-12-18T03:47:09;-11.35;84.97
66722;SHT31;53633;49.932;10.884;2022-12-18T03:49:46;-11.41;85.43
66722;SHT31;53633;49.932;10.884;2022-12-18T03:52:18;-11.51;85.28
66722;SHT31;53633;49.932;10.884;2022-12-18T03:54:47;-11.54;85.86
66722;SHT31;53633;49.932;10.884;2022-12-18T03:57:17;-11.61;85.87
66722;SHT31;53633;49.932;10.884;2022-12-18T03:59:46;-11.61;86.55
66722;SHT31;53633;49.932;10.884;2022-12-18T04:02:15;-11.62;86.75
66722;SHT31;53633;49.932;10.884;2022-12-18T04:04:43;-11.61;87.22
66722;SHT31;53633;49.932;10.884;2022-12-18T04:07:11;-11.52;87.66
66722;SHT31;53633;49.932;10.884;2022-12-18T04:09:39;-11.52;87.72
66722;SHT31;53633;49.932;10.884;2022-12-18T04:12:08;-11.52;87.72
66722;SHT31;53633;49.932;10.884;2022-12-18T04:14:36;-11.45;88.57
66722;SHT31;53633;49.932;10.884;2022-12-18T04:17:03;-11.31;88.17
66722;SHT31;53633;49.932;10.884;2022-12-18T04:19:30;-11.28;88.06
66722;SHT31;53633;49.932;10.884;2022-12-18T04:21:56;-11.37;87.92
66722;SHT31;53633;49.932;10.884;2022-12-18T04:24:23;-11.38;85.70
66722;SHT31;53633;49.932;10.884;2022-12-18T04:26:50;-11.58;84.31
66722;SHT31;53633;49.932;10.884;2022-12-18T04:29:16;-11.80;84.35
66722;SHT31;53633;49.932;10.884;2022-12-18T04:31:44;-11.83;85.21
66722;SHT31;53633;49.932;10.884;2022-12-18T04:34:11;-11.85;84.93
66722;SHT31;53633;49.932;10.884;2022-12-18T04:36:38;-11.91;84.61
66722;SHT31;53633;49.932;10.884;2022-12-18T04:39:04;-12.13;84.07
66722;SHT31;53633;49.932;10.884;2022-12-18T04:41:31;-12.21;85.07
66722;SHT31;53633;49.932;10.884;2022-12-18T04:43:58;-12.28;84.86
66722;SHT31;53633;49.932;10.884;2022-12-18T04:46:24;-12.33;84.19
66722;SHT31;53633;49.932;10.884;2022-12-18T04:48:52;-12.44;84.34
66722;SHT31;53633;49.932;10.884;2022-12-18T04:51:19;-12.49;85.45
66722;SHT31;53633;49.932;10.884;2022-12-18T04:53:52;-12.49;85.36
66722;SHT31;53633;49.932;10.884;2022-12-18T04:56:18;-12.49;84.73
66722;SHT31;53633;49.932;10.884;2022-12-18T04:58:45;-12.56;85.27
66722;SHT31;53633;49.932;10.884;2022-12-18T05:01:13;-12.66;84.99
66722;SHT31;53633;49.932;10.884;2022-12-18T05:03:41;-12.65;85.68
66722;SHT31;53633;49.932;10.884;2022-12-18T05:06:09;-12.65;86.03
66722;SHT31;53633;49.932;10.884;2022-12-18T05:08:36;-12.55;86.49
66722;SHT31;53633;49.932;10.884;2022-12-18T05:11:05;-12.54;86.52
66722;SHT31;53633;49.932;10.884;2022-12-18T05:13:33;-12.48;86.64
66722;SHT31;53633;49.932;10.884;2022-12-18T05:16:00;-12.33;86.35
66722;SHT31;53633;49.932;10.884;2022-12-18T05:18:27;-12.33;86.42
66722;SHT31;53633;49.932;10.884;2022-12-18T05:20:54;-12.27;86.10
66722;SHT31;53633;49.932;10.884;2022-12-18T05:23:23;-12.35;85.16
66722;SHT31;53633;49.932;10.884;2022-12-18T05:25:51;-12.35;85.17
66722;SHT31;53633;49.932;10.884;2022-12-18T05:28:18;-12.21;84.98
66722;SHT31;53633;49.932;10.884;2022-12-18T05:30:48;-12.33;83.59
66722;SHT31;53633;49.932;10.884;2022-12-18T05:33:14;-12.48;84.25
66722;SHT31;53633;49.932;10.884;2022-12-18T05:35:41;-12.56;84.87
66722;SHT31;53633;49.932;10.884;2022-12-18T05:38:08;-12.65;84.59
66722;SHT31;53633;49.932;10.884;2022-12-18T05:40:35;-12.75;85.37
66722;SHT31;53633;49.932;10.884;2022-12-18T05:43:02;-12.72;85.20
66722;SHT31;53633;49.932;10.884;2022-12-18T05:45:29;-12.82;84.40
66722;SHT31;53633;49.932;10.884;2022-12-18T05:47:55;-12.87;85.45
66722;SHT31;53633;49.932;10.884;2022-12-18T05:50:22;-13.00;84.40
66722;SHT31;53633;49.932;10.884;2022-12-18T05:52:49;-12.85;86.56
66722;SHT31;53633;49.932;10.884;2022-12-18T05:55:16;-12.73;86.57
66722;SHT31;53633;49.932;10.884;2022-12-18T05:57:44;-12.76;85.92
66722;SHT31;53633;49.932;10.884;2022-12-18T06:00:12;-12.73;85.92
66722;SHT31;53633;49.932;10.884;2022-12-18T06:02:39;-12.71;85.54
66722;SHT31;53633;49.932;10.884;2022-12-18T06:05:06;-12.71;85.60
66722;SHT31;53633;49.932;10.884;2022-12-18T06:07:33;-12.76;85.22
66722;SHT31;53633;49.932;10.884;2022-12-18T06:09:59;-12.87;85.03
66722;SHT31;53633;49.932;10.884;2022-12-18T06:12:26;-12.90;85.50
66722;SHT31;53633;49.932;10.884;2022-12-18T06:14:54;-12.80;85.47
66722;SHT31;53633;49.932;10.884;2022-12-18T06:17:21;-12.85;85.34
66722;SHT31;53633;49.932;10.884;2022-12-18T06:19:47;-12.92;84.94
66722;SHT31;53633;49.932;10.884;2022-12-18T06:22:14;-12.99;84.65
66722;SHT31;53633;49.932;10.884;2022-12-18T06:24:41;-12.94;85.25
66722;SHT31;53633;49.932;10.884;2022-12-18T06:27:07;-12.99;85.14
66722;SHT31;53633;49.932;10.884;2022-12-18T06:29:34;-13.00;84.96
66722;SHT31;53633;49.932;10.884;2022-12-18T06:32:02;-13.04;84.65
66722;SHT31;53633;49.932;10.884;2022-12-18T06:34:28;-13.06;85.01
66722;SHT31;53633;49.932;10.884;2022-12-18T06:36:55;-13.08;85.00
66722;SHT31;53633;49.932;10.884;2022-12-18T06:39:22;-13.13;84.97
66722;SHT31;53633;49.932;10.884;2022-12-18T06:41:48;-13.18;84.84
66722;SHT31;53633;49.932;10.884;2022-12-18T06:44:15;-13.11;85.35
66722;SHT31;53633;49.932;10.884;2022-12-18T06:46:42;-13.17;84.70
66722;SHT31;53633;49.932;10.884;2022-12-18T06:49:10;-13.20;84.97
66722;SHT31;53633;49.932;10.884;2022-12-18T06:51:37;-13.23;86.01
66722;SHT31;53633;49.932;10.884;2022-12-18T06:54:04;-13.21;84.87
66722;SHT31;53633;49.932;10.884;2022-12-18T06:56:30;-13.36;83.49
66722;SHT31;53633;49.932;10.884;2022-12-18T06:58:57;-13.39;84.75
66722;SHT31;53633;49.932;10.884;2022-12-18T07:01:24;-13.42;83.67
66722;SHT31;53633;49.932;10.884;2022-12-18T07:03:52;-13.42;84.20
66722;SHT31;53633;49.932;10.884;2022-12-18T07:06:22;-13.28;85.70
66722;SHT31;53633;49.932;10.884;2022-12-18T07:08:50;-13.14;86.86
66722;SHT31;53633;49.932;10.884;2022-12-18T07:11:18;-13.06;86.13
66722;SHT31;53633;49.932;10.884;2022-12-18T07:13:45;-13.10;85.73
66722;SHT31;53633;49.932;10.884;2022-12-18T07:16:14;-12.97;86.81
66722;SHT31;53633;49.932;10.884;2022-12-18T07:18:50;-12.76;86.69
66722;SHT31;53633;49.932;10.884;2022-12-18T07:21:18;-12.77;85.50
66722;SHT31;53633;49.932;10.884;2022-12-18T07:23:46;-12.83;85.02
66722;SHT31;53633;49.932;10.884;2022-12-18T07:26:13;-12.66;85.19
66722;SHT31;53633;49.932;10.884;2022-12-18T07:28:41;-12.72;84.37
66722;SHT31;53633;49.932;10.884;2022-12-18T07:31:10;-12.87;83.66
66722;SHT31;53633;49.932;10.884;2022-12-18T07:33:37;-12.87;83.55
66722;SHT31;53633;49.932;10.884;2022-12-18T07:36:06;-12.87;83.89
66722;SHT31;53633;49.932;10.884;2022-12-18T07:38:35;-12.73;84.08
66722;SHT31;53633;49.932;10.884;2022-12-18T07:41:04;-12.80;83.55
66722;SHT31;53633;49.932;10.884;2022-12-18T07:43:32;-12.75;84.04
66722;SHT31;53633;49.932;10.884;2022-12-18T07:45:59;-12.68;84.09
66722;SHT31;53633;49.932;10.884;2022-12-18T07:48:25;-12.72;83.79
66722;SHT31;53633;49.932;10.884;2022-12-18T07:50:52;-12.71;83.61
66722;SHT31;53633;49.932;10.884;2022-12-18T07:53:19;-12.56;83.78
66722;SHT31;53633;49.932;10.884;2022-12-18T07:55:45;-12.46;83.53
66722;SHT31;53633;49.932;10.884;2022-12-18T07:58:35;-12.41;83.42
66722;SHT31;53633;49.932;10.884;2022-12-18T08:01:03;-12.37;83.37
66722;SHT31;53633;49.932;10.884;2022-12-18T08:03:32;-12.30;83.61
66722;SHT31;53633;49.932;10.884;2022-12-18T08:06:00;-12.34;83.43
66722;SHT31;53633;49.932;10.884;2022-12-18T08:08:27;-12.28;83.64
66722;SHT31;53633;49.932;10.884;2022-12-18T08:10:53;-12.20;83.97
66722;SHT31;53633;49.932;10.884;2022-12-18T08:13:20;-12.12;83.66
66722;SHT31;53633;49.932;10.884;2022-12-18T08:15:56;-12.03;83.78
66722;SHT31;53633;49.932;10.884;2022-12-18T08:18:23;-12.00;83.80
66722;SHT31;53633;49.932;10.884;2022-12-18T08:20:50;-11.85;83.46
66722;SHT31;53633;49.932;10.884;2022-12-18T08:23:17;-11.63;83.34
66722;SHT31;53633;49.932;10.884;2022-12-18T08:25:43;-11.48;83.08
66722;SHT31;53633;49.932;10.884;2022-12-18T08:28:10;-11.34;82.26
66722;SHT31;53633;49.932;10.884;2022-12-18T08:30:37;-11.35;82.16
66722;SHT31;53633;49.932;10.884;2022-12-18T08:33:05;-11.26;82.32
66722;SHT31;53633;49.932;10.884;2022-12-18T08:35:34;-11.17;82.53
66722;SHT31;53633;49.932;10.884;2022-12-18T08:38:08;-11.10;82.82
66722;SHT31;53633;49.932;10.884;2022-12-18T08:40:34;-10.96;82.91
66722;SHT31;53633;49.932;10.884;2022-12-18T08:43:02;-10.92;83.27
66722;SHT31;53633;49.932;10.884;2022-12-18T08:45:29;-10.89;83.65
66722;SHT31;53633;49.932;10.884;2022-12-18T08:47:59;-10.87;83.98
66722;SHT31;53633;49.932;10.884;2022-12-18T08:50:27;-10.59;83.76
66722;SHT31;53633;49.932;10.884;2022-12-18T08:52:53;-10.38;83.24
66722;SHT31;53633;49.932;10.884;2022-12-18T08:55:20;-10.18;82.30
66722;SHT31;53633;49.932;10.884;2022-12-18T08:57:48;-10.06;82.01
66722;SHT31;53633;49.932;10.884;2022-12-18T09:00:15;-9.99;81.82
66722;SHT31;53633;49.932;10.884;2022-12-18T09:02:42;-9.90;81.91
66722;SHT31;53633;49.932;10.884;2022-12-18T09:05:09;-9.93;82.27
66722;SHT31;53633;49.932;10.884;2022-12-18T09:07:37;-9.93;82.81
66722;SHT31;53633;49.932;10.884;2022-12-18T09:10:05;-9.97;83.22
66722;SHT31;53633;49.932;10.884;2022-12-18T09:12:32;-9.88;83.64
66722;SHT31;53633;49.932;10.884;2022-12-18T09:14:59;-9.69;83.36
66722;SHT31;53633;49.932;10.884;2022-12-18T09:17:25;-9.55;82.84
66722;SHT31;53633;49.932;10.884;2022-12-18T09:19:52;-9.45;82.97
66722;SHT31;53633;49.932;10.884;2022-12-18T09:22:18;-9.31;82.53
66722;SHT31;53633;49.932;10.884;2022-12-18T09:24:48;-9.35;82.85
66722;SHT31;53633;49.932;10.884;2022-12-18T09:27:15;-9.24;83.01
66722;SHT31;53633;49.932;10.884;2022-12-18T09:29:41;-9.19;82.88
66722;SHT31;53633;49.932;10.884;2022-12-18T09:32:08;-9.23;83.07
66722;SHT31;53633;49.932;10.884;2022-12-18T09:34:35;-9.19;83.58
66722;SHT31;53633;49.932;10.884;2022-12-18T09:37:01;-9.10;83.48
66722;SHT31;53633;49.932;10.884;2022-12-18T09:39:28;-9.06;83.47
66722;SHT31;53633;49.932;10.884;2022-12-18T09:41:57;-8.92;83.49
66722;SHT31;53633;49.932;10.884;2022-12-18T09:44:26;-8.82;82.90
66722;SHT31;53633;49.932;10.884;2022-12-18T09:46:59;-8.75;83.10
66722;SHT31;53633;49.932;10.884;2022-12-18T09:49:30;-8.68;82.96
66722;SHT31;53633;49.932;10.884;2022-12-18T09:52:00;-8.69;83.14
66722;SHT31;53633;49.932;10.884;2022-12-18T09:54:33;-8.59;83.37
66722;SHT31;53633;49.932;10.884;2022-12-18T09:57:03;-8.52;82.86
66722;SHT31;53633;49.932;10.884;2022-12-18T09:59:33;-8.48;83.05
66722;SHT31;53633;49.932;10.884;2022-12-18T10:02:17;-8.44;83.25
66722;SHT31;53633;49.932;10.884;2022-12-18T10:04:50;-8.37;83.47
66722;SHT31;53633;49.932;10.884;2022-12-18T10:07:26;-8.31;83.48
66722;SHT31;53633;49.932;10.884;2022-12-18T10:09:58;-8.26;83.23
66722;SHT31;53633;49.932;10.884;2022-12-18T10:12:32;-8.24;83.33
66722;SHT31;53633;49.932;10.884;2022-12-18T10:15:04;-8.21;83.66
66722;SHT31;53633;49.932;10.884;2022-12-18T10:17:40;-8.14;83.84
66722;SHT31;53633;49.932;10.884;2022-12-18T10:20:13;-8.09;83.85
66722;SHT31;53633;49.932;10.884;2022-12-18T10:22:53;-8.03;83.50
66722;SHT31;53633;49.932;10.884;2022-12-18T10:25:24;-7.97;83.68
66722;SHT31;53633;49.932;10.884;2022-12-18T10:27:57;-7.89;83.49
66722;SHT31;53633;49.932;10.884;2022-12-18T10:30:24;-7.89;83.51
66722;SHT31;53633;49.932;10.884;2022-12-18T10:32:51;-7.83;83.36
66722;SHT31;53633;49.932;10.884;2022-12-18T10:35:20;-7.81;83.69
66722;SHT31;53633;49.932;10.884;2022-12-18T10:38:05;-7.74;83.50
66722;SHT31;53633;49.932;10.884;2022-12-18T10:40:33;-7.69;83.77
66722;SHT31;53633;49.932;10.884;2022-12-18T10:43:19;-7.63;83.76
66722;SHT31;53633;49.932;10.884;2022-12-18T10:46:01;-7.58;83.63
66722;SHT31;53633;49.932;10.884;2022-12-18T10:48:30;-7.56;83.88
66722;SHT31;53633;49.932;10.884;2022-12-18T10:50:57;-7.56;84.27
66722;SHT31;53633;49.932;10.884;2022-12-18T10:53:40;-7.44;83.77
66722;SHT31;53633;49.932;10.884;2022-12-18T10:56:08;-7.33;83.67
66722;SHT31;53633;49.932;10.884;2022-12-18T10:58:37;-7.38;83.49
66722;SHT31;53633;49.932;10.884;2022-12-18T11:01:08;-7.37;83.62
66722;SHT31;53633;49.932;10.884;2022-12-18T11:03:36;-7.35;84.16
66722;SHT31;53633;49.932;10.884;2022-12-18T11:06:06;-7.34;84.50
66722;SHT31;53633;49.932;10.884;2022-12-18T11:08:33;-7.30;84.30
66722;SHT31;53633;49.932;10.884;2022-12-18T11:11:00;-7.23;84.56
66722;SHT31;53633;49.932;10.884;2022-12-18T11:13:29;-7.26;84.78
66722;SHT31;53633;49.932;10.884;2022-12-18T11:15:58;-7.19;84.84
66722;SHT31;53633;49.932;10.884;2022-12-18T11:18:27;-7.21;85.05
66722;SHT31;53633;49.932;10.884;2022-12-18T11:20:56;-7.13;85.12
66722;SHT31;53633;49.932;10.884;2022-12-18T11:23:25;-7.19;85.02
66722;SHT31;53633;49.932;10.884;2022-12-18T11:25:57;-7.16;84.92
66722;SHT31;53633;49.932;10.884;2022-12-18T11:28:34;-7.16;85.12
66722;SHT31;53633;49.932;10.884;2022-12-18T11:31:24;-7.06;85.39
66722;SHT31;53633;49.932;10.884;2022-12-18T11:34:00;-6.91;84.82
66722;SHT31;53633;49.932;10.884;2022-12-18T11:36:48;-6.93;85.09
66722;SHT31;53633;49.932;10.884;2022-12-18T11:39:17;-6.93;85.47
66722;SHT31;53633;49.932;10.884;2022-12-18T11:41:52;-6.92;85.36
66722;SHT31;53633;49.932;10.884;2022-12-18T11:44:23;-6.85;85.05
66722;SHT31;53633;49.932;10.884;2022-12-18T11:46:56;-6.82;85.30
66722;SHT31;53633;49.932;10.884;2022-12-18T11:49:28;-6.72;85.24
66722;SHT31;53633;49.932;10.884;2022-12-18T11:52:00;-6.71;85.20
66722;SHT31;53633;49.932;10.884;2022-12-18T11:54:27;-6.67;85.05
66722;SHT31;53633;49.932;10.884;2022-12-18T11:57:00;-6.64;85.05
66722;SHT31;53633;49.932;10.884;2022-12-18T11:59:35;-6.61;85.05
66722;SHT31;53633;49.932;10.884;2022-12-18T12:02:21;-6.62;85.29
66722;SHT31;53633;49.932;10.884;2022-12-18T12:05:04;-6.55;85.35
66722;SHT31;53633;49.932;10.884;2022-12-18T12:07:38;-6.54;85.08
66722;SHT31;53633;49.932;10.884;2022-12-18T12:10:20;-6.55;85.26
66722;SHT31;53633;49.932;10.884;2022-12-18T12:13:00;-6.47;85.10
66722;SHT31;53633;49.932;10.884;2022-12-18T12:15:36;-6.45;85.14
66722;SHT31;53633;49.932;10.884;2022-12-18T12:18:15;-6.51;85.23
66722;SHT31;53633;49.932;10.884;2022-12-18T12:20:52;-6.51;85.59
66722;SHT31;53633;49.932;10.884;2022-12-18T12:23:32;-6.40;85.43
66722;SHT31;53633;49.932;10.884;2022-12-18T12:26:04;-6.33;85.35
66722;SHT31;53633;49.932;10.884;2022-12-18T12:28:52;-6.23;85.22
66722;SHT31;53633;49.932;10.884;2022-12-18T12:31:31;-6.13;85.01
66722;SHT31;53633;49.932;10.884;2022-12-18T12:34:09;-6.06;85.02
66722;SHT31;53633;49.932;10.884;2022-12-18T12:36:46;-6.05;84.81
66722;SHT31;53633;49.932;10.884;2022-12-18T12:39:20;-6.06;84.92
66722;SHT31;53633;49.932;10.884;2022-12-18T12:41:48;-5.96;84.88
66722;SHT31;53633;49.932;10.884;2022-12-18T12:44:18;-5.92;84.74
66722;SHT31;53633;49.932;10.884;2022-12-18T12:46:48;-5.89;84.64
66722;SHT31;53633;49.932;10.884;2022-12-18T12:49:18;-5.77;84.46
66722;SHT31;53633;49.932;10.884;2022-12-18T12:51:54;-5.75;84.26
66722;SHT31;53633;49.932;10.884;2022-12-18T12:54:25;-5.75;84.31
66722;SHT31;53633;49.932;10.884;2022-12-18T12:56:58;-5.75;84.39
66722;SHT31;53633;49.932;10.884;2022-12-18T12:59:34;-5.59;84.41
66722;SHT31;53633;49.932;10.884;2022-12-18T13:02:10;-5.59;84.14
66722;SHT31;53633;49.932;10.884;2022-12-18T13:04:48;-5.62;84.30
66722;SHT31;53633;49.932;10.884;2022-12-18T13:07:20;-5.62;84.51
66722;SHT31;53633;49.932;10.884;2022-12-18T13:10:13;-5.58;84.22
66722;SHT31;53633;49.932;10.884;2022-12-18T13:12:55;-5.50;84.16
66722;SHT31;53633;49.932;10.884;2022-12-18T13:15:25;-5.52;84.14
66722;SHT31;53633;49.932;10.884;2022-12-18T13:18:16;-5.47;84.23
66722;SHT31;53633;49.932;10.884;2022-12-18T13:20:45;-5.61;84.48
66722;SHT31;53633;49.932;10.884;2022-12-18T13:23:29;-5.64;84.70
66722;SHT31;53633;49.932;10.884;2022-12-18T13:25:57;-5.61;84.77
66722;SHT31;53633;49.932;10.884;2022-12-18T13:28:51;-5.71;85.07
66722;SHT31;53633;49.932;10.884;2022-12-18T13:34:18;-5.81;85.29
66722;SHT31;53633;49.932;10.884;2022-12-18T13:40:02;-5.82;85.60
66722;SHT31;53633;49.932;10.884;2022-12-18T13:42:49;-5.79;85.59
66722;SHT31;53633;49.932;10.884;2022-12-18T13:45:39;-5.75;85.49
66722;SHT31;53633;49.932;10.884;2022-12-18T13:48:15;-5.79;85.50
66722;SHT31;53633;49.932;10.884;2022-12-18T13:50:42;-5.75;85.59
66722;SHT31;53633;49.932;10.884;2022-12-18T13:53:19;-5.78;85.66
66722;SHT31;53633;49.932;10.884;2022-12-18T13:55:48;-5.77;85.42
66722;SHT31;53633;49.932;10.884;2022-12-18T13:58:15;-5.85;85.97
66722;SHT31;53633;49.932;10.884;2022-12-18T14:00:43;-5.74;85.78
66722;SHT31;53633;49.932;10.884;2022-12-18T14:03:21;-5.67;85.28
66722;SHT31;53633;49.932;10.884;2022-12-18T14:05:54;-5.75;85.48
66722;SHT31;53633;49.932;10.884;2022-12-18T14:08:27;-5.75;85.66
66722;SHT31;53633;49.932;10.884;2022-12-18T14:10:56;-5.68;85.53
66722;SHT31;53633;49.932;10.884;2022-12-18T14:13:27;-5.62;85.56
66722;SHT31;53633;49.932;10.884;2022-12-18T14:15:55;-5.65;85.54
66722;SHT31;53633;49.932;10.884;2022-12-18T14:18:33;-5.71;85.90
66722;SHT31;53633;49.932;10.884;2022-12-18T14:21:03;-5.71;85.93
66722;SHT31;53633;49.932;10.884;2022-12-18T14:23:33;-5.78;86.05
66722;SHT31;53633;49.932;10.884;2022-12-18T14:26:01;-5.85;86.50
66722;SHT31;53633;49.932;10.884;2022-12-18T14:28:31;-5.86;86.49
66722;SHT31;53633;49.932;10.884;2022-12-18T14:30:58;-5.78;86.68
66722;SHT31;53633;49.932;10.884;2022-12-18T14:33:26;-5.78;86.73
66722;SHT31;53633;49.932;10.884;2022-12-18T14:35:57;-5.77;86.45
66722;SHT31;53633;49.932;10.884;2022-12-18T14:38:26;-5.89;86.73
66722;SHT31;53633;49.932;10.884;2022-12-18T14:40:59;-5.93;87.03
66722;SHT31;53633;49.932;10.884;2022-12-18T14:43:26;-5.86;87.10
66722;SHT31;53633;49.932;10.884;2022-12-18T14:45:54;-5.86;86.87
66722;SHT31;53633;49.932;10.884;2022-12-18T14:48:24;-5.96;87.14
66722;SHT31;53633;49.932;10.884;2022-12-18T14:51:00;-5.89;87.23
66722;SHT31;53633;49.932;10.884;2022-12-18T14:53:36;-5.92;87.33
66722;SHT31;53633;49.932;10.884;2022-12-18T14:56:14;-5.93;87.31
66722;SHT31;53633;49.932;10.884;2022-12-18T14:58:45;-5.90;87.08
66722;SHT31;53633;49.932;10.884;2022-12-18T15:01:19;-5.85;86.88
66722;SHT31;53633;49.932;10.884;2022-12-18T15:03:45;-5.93;86.97
66722;SHT31;53633;49.932;10.884;2022-12-18T15:06:17;-6.00;87.23
66722;SHT31;53633;49.932;10.884;2022-12-18T15:08:44;-6.18;87.47
66722;SHT31;53633;49.932;10.884;2022-12-18T15:11:32;-6.21;88.00
66722;SHT31;53633;49.932;10.884;2022-12-18T15:13:59;-6.23;88.16
66722;SHT31;53633;49.932;10.884;2022-12-18T15:16:26;-6.26;88.07
66722;SHT31;53633;49.932;10.884;2022-12-18T15:18:53;-6.28;88.34
66722;SHT31;53633;49.932;10.884;2022-12-18T15:21:20;-6.27;88.38
66722;SHT31;53633;49.932;10.884;2022-12-18T15:23:49;-6.38;88.46
66722;SHT31;53633;49.932;10.884;2022-12-18T15:26:17;-6.42;88.74
66722;SHT31;53633;49.932;10.884;2022-12-18T15:28:48;-6.27;88.79
66722;SHT31;53633;49.932;10.884;2022-12-18T15:31:28;-6.34;88.66
66722;SHT31;53633;49.932;10.884;2022-12-18T15:34:19;-6.24;88.63